createdAt,value
2017-01-20T00:00:14.728Z,54.59
2017-01-20T00:01:15.269Z,54.62
2017-01-20T00:02:13.776Z,54.52
2017-01-20T00:03:14.601Z,54.76
2017-01-20T00:04:14.134Z,55.37
2017-01-20T00:05:12.005Z,55.56
2017-01-20T00:06:13.718Z,55.62
2017-01-20T00:07:13.232Z,55.66
2017-01-20T00:08:14.053Z,55.70
2017-01-20T00:09:14.725Z,55.71
2017-01-20T00:10:16.429Z,55.73
2017-01-20T00:11:16.159Z,55.73
2017-01-20T00:12:15.074Z,55.73
2017-01-20T00:13:12.638Z,55.73
2017-01-20T00:14:12.771Z,55.76
2017-01-20T00:15:12.694Z,55.75
2017-01-20T00:16:13.512Z,55.74
2017-01-20T00:17:13.337Z,55.65
2017-01-20T00:18:12.839Z,54.88
2017-01-20T00:19:15.836Z,54.67
2017-01-20T00:20:14.558Z,54.57
2017-01-20T00:21:14.513Z,54.52
2017-01-20T00:22:13.800Z,54.49
2017-01-20T00:23:13.158Z,54.48
2017-01-20T00:24:13.420Z,54.43
2017-01-20T00:25:12.446Z,54.41
2017-01-20T00:26:12.530Z,54.42
2017-01-20T00:27:13.459Z,54.38
2017-01-20T00:28:12.608Z,54.57
2017-01-20T00:29:17.294Z,55.31
2017-01-20T00:30:12.348Z,55.48
2017-01-20T00:31:13.351Z,55.58
2017-01-20T00:32:13.536Z,55.62
2017-01-20T00:33:13.089Z,55.67
2017-01-20T00:34:13.359Z,55.68
2017-01-20T00:35:13.156Z,55.72
2017-01-20T00:36:12.124Z,55.71
2017-01-20T00:37:12.242Z,55.74
2017-01-20T00:38:18.836Z,55.74
2017-01-20T00:39:14.257Z,55.72
2017-01-20T00:40:12.628Z,55.75
2017-01-20T00:41:13.343Z,55.74
2017-01-20T00:42:12.316Z,55.75
2017-01-20T00:43:13.053Z,55.63
2017-01-20T00:44:13.540Z,54.87
2017-01-20T00:45:13.594Z,54.65
2017-01-20T00:46:13.560Z,55.45
2017-01-20T00:47:14.079Z,55.58
2017-01-20T00:48:13.566Z,55.65
2017-01-20T00:49:13.908Z,55.69
2017-01-20T00:50:12.990Z,55.69
2017-01-20T00:51:12.809Z,55.72
2017-01-20T00:52:13.719Z,55.72
2017-01-20T00:53:13.898Z,55.75
2017-01-20T00:54:14.914Z,55.74
2017-01-20T00:55:14.479Z,55.75
2017-01-20T00:56:13.348Z,55.78
2017-01-20T00:57:13.055Z,55.74
2017-01-20T00:58:12.473Z,55.74
2017-01-20T00:59:13.507Z,55.76
2017-01-20T01:00:13.868Z,55.75
2017-01-20T01:01:16.570Z,55.78
2017-01-20T01:02:12.653Z,55.76
2017-01-20T01:03:14.182Z,55.75
2017-01-20T01:04:13.868Z,55.77
2017-01-20T01:05:14.571Z,55.75
2017-01-20T01:06:12.915Z,55.73
2017-01-20T01:07:14.172Z,55.72
2017-01-20T01:08:12.207Z,55.73
2017-01-20T01:09:14.222Z,55.74
2017-01-20T01:10:13.599Z,55.74
2017-01-20T01:11:16.298Z,55.76
2017-01-20T01:12:13.026Z,55.76
2017-01-20T01:13:14.206Z,55.74
2017-01-20T01:14:14.623Z,55.77
2017-01-20T01:15:14.508Z,55.76
2017-01-20T01:16:16.128Z,55.74
2017-01-20T01:17:15.293Z,55.72
2017-01-20T01:18:15.018Z,55.73
2017-01-20T01:19:14.283Z,55.74
2017-01-20T01:20:14.566Z,55.72
2017-01-20T01:21:15.386Z,55.73
2017-01-20T01:22:17.078Z,55.73
2017-01-20T01:23:20.309Z,55.75
2017-01-20T01:24:14.561Z,55.72
2017-01-20T01:25:14.142Z,55.74
2017-01-20T01:26:12.520Z,55.73
2017-01-20T01:27:14.903Z,55.73
2017-01-20T01:28:14.891Z,55.72
2017-01-20T01:29:13.886Z,55.74
2017-01-20T01:30:11.884Z,55.75
2017-01-20T01:31:14.712Z,55.73
2017-01-20T01:32:13.919Z,55.73
2017-01-20T01:33:13.472Z,55.75
2017-01-20T01:34:15.336Z,55.75
2017-01-20T01:35:15.931Z,55.73
2017-01-20T01:36:11.263Z,55.75
2017-01-20T01:37:13.492Z,55.74
2017-01-20T01:38:13.500Z,55.74
2017-01-20T01:39:14.297Z,55.73
2017-01-20T01:40:14.713Z,55.74
2017-01-20T01:41:13.651Z,55.76
2017-01-20T01:42:16.215Z,55.75
2017-01-20T01:43:13.123Z,55.76
2017-01-20T01:44:13.971Z,55.74
2017-01-20T01:45:12.378Z,55.72
2017-01-20T01:46:14.894Z,55.74
2017-01-20T01:47:13.912Z,55.75
2017-01-20T01:48:13.297Z,55.75
2017-01-20T01:49:13.266Z,55.74
2017-01-20T01:50:15.093Z,55.77
2017-01-20T01:51:12.682Z,55.74
2017-01-20T01:52:15.011Z,55.72
2017-01-20T01:53:14.836Z,55.75
2017-01-20T01:54:14.026Z,55.76
2017-01-20T01:55:12.730Z,55.73
2017-01-20T01:56:12.895Z,55.75
2017-01-20T01:57:14.431Z,55.76
2017-01-20T01:58:15.381Z,55.74
2017-01-20T01:59:11.424Z,55.74
2017-01-20T02:00:13.059Z,55.76
2017-01-20T02:01:12.477Z,55.73
2017-01-20T02:02:13.159Z,55.73
2017-01-20T02:03:15.581Z,55.73
2017-01-20T02:04:14.434Z,55.73
2017-01-20T02:05:12.474Z,55.74
2017-01-20T02:06:16.592Z,55.72
2017-01-20T02:07:16.113Z,55.75
2017-01-20T02:08:15.447Z,55.74
2017-01-20T02:09:15.807Z,55.73
2017-01-20T02:10:13.368Z,55.75
2017-01-20T02:11:11.382Z,55.76
2017-01-20T02:12:13.053Z,55.76
2017-01-20T02:13:14.641Z,55.75
2017-01-20T02:14:14.479Z,55.73
2017-01-20T02:15:12.428Z,55.74
2017-01-20T02:16:14.901Z,55.76
2017-01-20T02:17:13.535Z,55.75
2017-01-20T02:18:14.013Z,55.76
2017-01-20T02:19:14.899Z,55.78
2017-01-20T02:20:14.156Z,55.76
2017-01-20T02:21:13.955Z,55.74
2017-01-20T02:22:12.935Z,55.77
2017-01-20T02:23:13.333Z,55.75
2017-01-20T02:24:14.634Z,55.75
2017-01-20T02:25:12.818Z,55.79
2017-01-20T02:26:13.546Z,55.75
2017-01-20T02:27:14.221Z,55.72
2017-01-20T02:28:13.811Z,54.88
2017-01-20T02:29:13.016Z,54.73
2017-01-20T02:30:12.694Z,55.47
2017-01-20T02:31:14.471Z,55.60
2017-01-20T02:32:13.806Z,55.67
2017-01-20T02:33:12.949Z,55.69
2017-01-20T02:34:13.544Z,55.72
2017-01-20T02:35:15.995Z,55.72
2017-01-20T02:36:12.837Z,55.74
2017-01-20T02:37:14.283Z,55.72
2017-01-20T02:38:12.276Z,55.73
2017-01-20T02:39:13.791Z,55.72
2017-01-20T02:40:13.773Z,55.74
2017-01-20T02:41:14.965Z,55.75
2017-01-20T02:42:12.614Z,55.74
2017-01-20T02:43:14.039Z,55.78
2017-01-20T02:44:14.385Z,55.77
2017-01-20T02:45:12.317Z,55.76
2017-01-20T02:46:15.075Z,55.74
2017-01-20T02:47:12.533Z,55.77
2017-01-20T02:48:13.355Z,55.75
2017-01-20T02:49:14.732Z,55.76
2017-01-20T02:50:13.726Z,55.76
2017-01-20T02:51:12.750Z,55.76
2017-01-20T02:52:12.613Z,55.77
2017-01-20T02:53:13.344Z,55.78
2017-01-20T02:54:15.611Z,55.78
2017-01-20T02:55:15.929Z,55.79
2017-01-20T02:56:14.618Z,55.79
2017-01-20T02:57:13.904Z,55.81
2017-01-20T02:58:16.063Z,55.77
2017-01-20T02:59:15.909Z,55.78
2017-01-20T03:00:13.519Z,55.80
2017-01-20T03:01:12.581Z,55.77
2017-01-20T03:02:13.109Z,55.79
2017-01-20T03:03:12.041Z,55.79
2017-01-20T03:04:14.065Z,55.65
2017-01-20T03:05:12.450Z,54.91
2017-01-20T03:06:12.492Z,55.01
2017-01-20T03:07:12.537Z,55.50
2017-01-20T03:08:16.143Z,55.66
2017-01-20T03:09:12.804Z,55.72
2017-01-20T03:10:15.948Z,55.78
2017-01-20T03:11:12.631Z,55.77
2017-01-20T03:12:13.867Z,55.78
2017-01-20T03:13:15.589Z,55.77
2017-01-20T03:14:13.394Z,55.80
2017-01-20T03:15:11.478Z,55.66
2017-01-20T03:16:12.888Z,55.07
2017-01-20T03:17:16.689Z,55.61
2017-01-20T03:18:13.565Z,55.58
2017-01-20T03:19:12.853Z,54.84
2017-01-20T03:20:14.523Z,54.67
2017-01-20T03:21:13.858Z,54.59
2017-01-20T03:22:14.205Z,54.54
2017-01-20T03:23:15.464Z,54.52
2017-01-20T03:24:13.169Z,54.72
2017-01-20T03:25:12.680Z,55.36
2017-01-20T03:26:14.468Z,55.55
2017-01-20T03:27:16.183Z,55.67
2017-01-20T03:28:12.811Z,55.70
2017-01-20T03:29:13.593Z,55.73
2017-01-20T03:30:13.740Z,55.73
2017-01-20T03:31:13.713Z,55.76
2017-01-20T03:32:14.964Z,55.78
2017-01-20T03:33:12.220Z,55.76
2017-01-20T03:34:12.634Z,55.76
2017-01-20T03:35:12.604Z,55.78
2017-01-20T03:36:13.586Z,55.76
2017-01-20T03:37:15.151Z,55.80
2017-01-20T03:38:13.889Z,55.78
2017-01-20T03:39:15.386Z,55.69
2017-01-20T03:40:11.344Z,54.92
2017-01-20T03:41:13.294Z,54.74
2017-01-20T03:42:14.732Z,54.61
2017-01-20T03:43:12.677Z,55.43
2017-01-20T03:44:13.898Z,55.59
2017-01-20T03:45:12.805Z,55.68
2017-01-20T03:46:13.796Z,55.72
2017-01-20T03:47:12.856Z,55.75
2017-01-20T03:48:12.930Z,55.75
2017-01-20T03:49:14.324Z,55.79
2017-01-20T03:50:11.442Z,55.66
2017-01-20T03:51:13.183Z,55.09
2017-01-20T03:52:14.635Z,55.61
2017-01-20T03:53:12.711Z,55.69
2017-01-20T03:54:12.634Z,55.77
2017-01-20T03:55:16.980Z,55.77
2017-01-20T03:56:12.620Z,55.79
2017-01-20T03:57:12.714Z,55.79
2017-01-20T03:58:11.026Z,55.81
2017-01-20T03:59:12.654Z,55.82
2017-01-20T04:00:12.669Z,55.81
2017-01-20T04:01:11.158Z,55.81
2017-01-20T04:02:12.816Z,55.82
2017-01-20T04:03:14.506Z,55.82
2017-01-20T04:04:12.962Z,55.68
2017-01-20T04:05:12.011Z,54.83
2017-01-20T04:06:12.498Z,54.70
2017-01-20T04:07:13.724Z,54.62
2017-01-20T04:08:13.085Z,54.71
2017-01-20T04:09:12.045Z,55.42
2017-01-20T04:10:13.335Z,55.59
2017-01-20T04:11:13.347Z,55.68
2017-01-20T04:12:11.620Z,55.61
2017-01-20T04:13:12.837Z,54.86
2017-01-20T04:14:12.817Z,54.72
2017-01-20T04:15:13.237Z,54.90
2017-01-20T04:16:12.487Z,55.46
2017-01-20T04:17:12.901Z,55.63
2017-01-20T04:18:11.054Z,55.71
2017-01-20T04:19:13.235Z,55.74
2017-01-20T04:20:12.298Z,55.76
2017-01-20T04:21:14.479Z,55.79
2017-01-20T04:22:13.173Z,55.80
2017-01-20T04:23:12.173Z,55.79
2017-01-20T04:24:13.030Z,55.80
2017-01-20T04:25:10.930Z,55.71
2017-01-20T04:26:12.475Z,54.88
2017-01-20T04:27:12.947Z,54.72
2017-01-20T04:28:12.919Z,54.61
2017-01-20T04:29:13.366Z,54.59
2017-01-20T04:30:12.927Z,54.53
2017-01-20T04:31:12.953Z,54.51
2017-01-20T04:32:12.340Z,54.49
2017-01-20T04:33:14.738Z,54.54
2017-01-20T04:34:15.452Z,55.35
2017-01-20T04:35:12.863Z,55.54
2017-01-20T04:36:13.913Z,55.64
2017-01-20T04:37:12.612Z,55.72
2017-01-20T04:38:10.754Z,55.73
2017-01-20T04:39:12.165Z,55.78
2017-01-20T04:40:18.700Z,55.79
2017-01-20T04:41:13.274Z,55.80
2017-01-20T04:42:15.900Z,55.67
2017-01-20T04:43:13.993Z,54.92
2017-01-20T04:44:12.549Z,54.70
2017-01-20T04:45:13.075Z,54.63
2017-01-20T04:46:13.128Z,54.57
2017-01-20T04:47:12.011Z,54.51
2017-01-20T04:48:11.949Z,54.53
2017-01-20T04:49:11.212Z,54.43
2017-01-20T04:50:11.354Z,54.48
2017-01-20T04:51:12.266Z,54.75
2017-01-20T04:52:12.700Z,55.38
2017-01-20T04:53:12.976Z,55.56
2017-01-20T04:54:12.390Z,55.63
2017-01-20T04:55:12.401Z,55.70
2017-01-20T04:56:12.968Z,55.73
2017-01-20T04:57:13.233Z,55.76
2017-01-20T04:58:12.210Z,55.76
2017-01-20T04:59:12.598Z,55.77
2017-01-20T05:00:14.233Z,55.80
2017-01-20T05:01:12.819Z,55.81
2017-01-20T05:02:15.109Z,55.81
2017-01-20T05:03:13.906Z,55.82
2017-01-20T05:04:13.543Z,55.81
2017-01-20T05:05:13.813Z,55.82
2017-01-20T05:06:13.553Z,55.85
2017-01-20T05:07:15.110Z,55.85
2017-01-20T05:08:13.029Z,55.84
2017-01-20T05:09:14.164Z,55.84
2017-01-20T05:10:12.187Z,55.83
2017-01-20T05:11:15.099Z,55.83
2017-01-20T05:12:12.118Z,55.83
2017-01-20T05:13:13.805Z,55.81
2017-01-20T05:14:13.732Z,55.83
2017-01-20T05:15:17.350Z,55.85
2017-01-20T05:16:12.428Z,55.85
2017-01-20T05:17:16.133Z,55.84
2017-01-20T05:18:11.737Z,55.86
2017-01-20T05:19:14.356Z,54.92
2017-01-20T05:20:12.358Z,54.75
2017-01-20T05:21:12.990Z,55.54
2017-01-20T05:22:12.936Z,55.69
2017-01-20T05:23:12.665Z,55.74
2017-01-20T05:24:13.565Z,55.78
2017-01-20T05:25:19.133Z,55.82
2017-01-20T05:26:18.480Z,55.58
2017-01-20T05:27:17.644Z,55.24
2017-01-20T05:28:14.449Z,55.62
2017-01-20T05:29:12.372Z,55.70
2017-01-20T05:30:15.225Z,55.74
2017-01-20T05:31:13.185Z,55.78
2017-01-20T05:32:14.366Z,55.83
2017-01-20T05:33:12.244Z,55.80
2017-01-20T05:34:14.540Z,55.84
2017-01-20T05:35:14.900Z,55.84
2017-01-20T05:36:12.789Z,55.84
2017-01-20T05:37:12.738Z,55.83
2017-01-20T05:38:13.547Z,55.86
2017-01-20T05:39:12.513Z,55.85
2017-01-20T05:40:12.864Z,55.83
2017-01-20T05:41:13.909Z,55.82
2017-01-20T05:42:13.030Z,55.84
2017-01-20T05:43:13.467Z,55.84
2017-01-20T05:44:13.277Z,55.85
2017-01-20T05:45:14.487Z,55.86
2017-01-20T05:46:13.742Z,55.84
2017-01-20T05:47:13.967Z,55.87
2017-01-20T05:48:11.908Z,55.84
2017-01-20T05:49:13.976Z,55.85
2017-01-20T05:50:11.519Z,55.85
2017-01-20T05:51:13.266Z,54.97
2017-01-20T05:52:11.450Z,54.80
2017-01-20T05:53:12.373Z,55.56
2017-01-20T05:54:14.303Z,55.58
2017-01-20T05:55:12.348Z,54.87
2017-01-20T05:56:13.936Z,54.59
2017-01-20T05:57:11.869Z,54.78
2017-01-20T05:58:12.040Z,55.47
2017-01-20T05:59:12.449Z,55.62
2017-01-20T06:00:12.868Z,55.72
2017-01-20T06:01:13.406Z,55.76
2017-01-20T06:02:16.021Z,55.80
2017-01-20T06:03:12.827Z,55.79
2017-01-20T06:04:16.523Z,55.81
2017-01-20T06:05:13.403Z,55.81
2017-01-20T06:06:12.561Z,55.83
2017-01-20T06:07:12.522Z,55.85
2017-01-20T06:08:13.949Z,54.94
2017-01-20T06:09:12.424Z,54.76
2017-01-20T06:10:12.699Z,54.67
2017-01-20T06:11:17.080Z,54.59
2017-01-20T06:12:11.015Z,54.58
2017-01-20T06:13:12.637Z,55.43
2017-01-20T06:14:12.625Z,55.62
2017-01-20T06:15:13.426Z,55.72
2017-01-20T06:16:13.137Z,55.74
2017-01-20T06:17:13.625Z,55.81
2017-01-20T06:18:13.185Z,55.79
2017-01-20T06:19:13.482Z,55.82
2017-01-20T06:20:12.506Z,55.86
2017-01-20T06:21:12.394Z,55.85
2017-01-20T06:22:14.553Z,55.88
2017-01-20T06:23:16.976Z,55.87
2017-01-20T06:24:12.653Z,55.88
2017-01-20T06:25:12.753Z,55.87
2017-01-20T06:26:13.821Z,55.87
2017-01-20T06:27:14.875Z,55.89
2017-01-20T06:28:14.645Z,55.87
2017-01-20T06:29:14.267Z,55.89
2017-01-20T06:30:12.872Z,55.88
2017-01-20T06:31:13.023Z,55.86
2017-01-20T06:32:12.685Z,55.85
2017-01-20T06:33:13.154Z,55.89
2017-01-20T06:34:12.825Z,55.92
2017-01-20T06:35:13.277Z,55.88
2017-01-20T06:36:12.262Z,55.88
2017-01-20T06:37:15.034Z,55.89
2017-01-20T06:38:12.534Z,55.89
2017-01-20T06:39:13.287Z,55.88
2017-01-20T06:40:12.904Z,55.89
2017-01-20T06:41:12.573Z,55.91
2017-01-20T06:42:16.416Z,55.89
2017-01-20T06:43:12.344Z,55.89
2017-01-20T06:44:12.257Z,55.88
2017-01-20T06:45:16.929Z,55.90
2017-01-20T06:46:12.494Z,55.90
2017-01-20T06:47:11.523Z,55.78
2017-01-20T06:48:16.616Z,54.98
2017-01-20T06:49:13.060Z,54.78
2017-01-20T06:50:12.032Z,54.72
2017-01-20T06:51:15.807Z,54.93
2017-01-20T06:52:14.105Z,55.50
2017-01-20T06:53:13.190Z,55.65
2017-01-20T06:54:10.975Z,55.65
2017-01-20T06:55:15.660Z,55.82
2017-01-20T06:56:14.346Z,55.81
2017-01-20T06:57:13.060Z,55.89
2017-01-20T06:58:12.732Z,30.58
2017-01-20T06:59:14.977Z,27.61
2017-01-20T07:00:12.872Z,28.08
2017-01-20T07:01:13.494Z,28.81
2017-01-20T07:02:12.483Z,30.05
2017-01-20T07:03:14.024Z,31.35
2017-01-20T07:04:14.040Z,31.34
2017-01-20T07:05:12.424Z,32.09
2017-01-20T07:06:15.117Z,33.84
2017-01-20T07:07:12.660Z,33.54
2017-01-20T07:08:12.666Z,33.54
2017-01-20T07:09:12.630Z,33.51
2017-01-20T07:10:12.637Z,33.64
2017-01-20T07:11:13.131Z,34.68
2017-01-20T07:12:12.174Z,35.02
2017-01-20T07:13:14.082Z,34.24
2017-01-20T07:14:14.316Z,34.43
2017-01-20T07:15:12.193Z,34.79
2017-01-20T07:16:12.061Z,34.93
2017-01-20T07:17:13.336Z,34.03
2017-01-20T07:18:12.372Z,34.01
2017-01-20T07:19:15.021Z,35.60
2017-01-20T07:20:12.614Z,36.30
2017-01-20T07:21:13.144Z,35.95
2017-01-20T07:22:13.696Z,34.29
2017-01-20T07:23:13.213Z,34.24
2017-01-20T07:24:12.364Z,37.76
2017-01-20T07:25:14.849Z,37.36
2017-01-20T07:26:14.923Z,37.90
2017-01-20T07:27:12.530Z,38.01
2017-01-20T07:28:13.169Z,38.60
2017-01-20T07:29:13.830Z,38.78
2017-01-20T07:30:14.878Z,39.11
2017-01-20T07:31:15.512Z,39.14
2017-01-20T07:32:13.746Z,39.22
2017-01-20T07:33:12.880Z,39.36
2017-01-20T07:34:10.980Z,39.31
2017-01-20T07:35:10.753Z,39.12
2017-01-20T07:36:11.097Z,39.35
2017-01-20T07:37:11.879Z,39.34
2017-01-20T07:38:13.280Z,39.43
2017-01-20T07:39:12.986Z,39.74
2017-01-20T07:40:13.483Z,39.76
2017-01-20T07:41:12.367Z,39.99
2017-01-20T07:42:12.248Z,40.07
2017-01-20T07:43:12.249Z,40.31
2017-01-20T07:44:12.860Z,40.56
2017-01-20T07:45:15.418Z,40.74
2017-01-20T07:46:13.547Z,40.93
2017-01-20T07:47:14.813Z,41.03
2017-01-20T07:48:13.200Z,41.34
2017-01-20T07:49:12.227Z,41.51
2017-01-20T07:50:15.696Z,41.66
2017-01-20T07:51:12.761Z,41.84
2017-01-20T07:52:12.828Z,42.03
2017-01-20T07:53:13.697Z,42.11
2017-01-20T07:54:12.739Z,42.34
2017-01-20T07:55:14.056Z,42.43
2017-01-20T07:56:12.719Z,42.74
2017-01-20T07:57:13.235Z,42.93
2017-01-20T07:58:12.831Z,43.06
2017-01-20T07:59:11.673Z,43.33
2017-01-20T08:00:14.850Z,42.67
2017-01-20T08:01:14.756Z,42.65
2017-01-20T08:02:15.642Z,42.76
2017-01-20T08:03:12.518Z,43.55
2017-01-20T08:04:13.475Z,43.79
2017-01-20T08:05:13.087Z,43.99
2017-01-20T08:06:12.754Z,44.19
2017-01-20T08:07:12.808Z,44.41
2017-01-20T08:08:12.764Z,44.44
2017-01-20T08:09:12.740Z,44.60
2017-01-20T08:10:13.869Z,44.69
2017-01-20T08:11:13.320Z,44.86
2017-01-20T08:12:13.475Z,44.93
2017-01-20T08:13:13.422Z,45.13
2017-01-20T08:14:12.911Z,45.19
2017-01-20T08:15:12.846Z,45.36
2017-01-20T08:16:12.972Z,45.52
2017-01-20T08:17:10.974Z,45.57
2017-01-20T08:18:13.304Z,44.76
2017-01-20T08:19:13.020Z,44.76
2017-01-20T08:20:12.055Z,44.79
2017-01-20T08:21:12.644Z,45.66
2017-01-20T08:22:13.645Z,45.81
2017-01-20T08:23:15.813Z,46.25
2017-01-20T08:24:12.791Z,46.28
2017-01-20T08:25:14.982Z,46.30
2017-01-20T08:26:12.933Z,46.48
2017-01-20T08:27:11.785Z,46.73
2017-01-20T08:28:13.793Z,46.71
2017-01-20T08:29:15.392Z,46.73
2017-01-20T08:30:13.195Z,46.89
2017-01-20T08:31:12.076Z,46.92
2017-01-20T08:32:13.034Z,47.11
2017-01-20T08:33:12.079Z,47.03
2017-01-20T08:34:13.564Z,47.06
2017-01-20T08:35:15.080Z,47.16
2017-01-20T08:36:12.817Z,47.21
2017-01-20T08:37:14.804Z,47.35
2017-01-20T08:38:13.547Z,47.36
2017-01-20T08:39:12.628Z,47.48
2017-01-20T08:40:13.177Z,47.57
2017-01-20T08:41:12.663Z,47.66
2017-01-20T08:42:14.427Z,47.71
2017-01-20T08:43:13.059Z,47.94
2017-01-20T08:44:14.188Z,48.01
2017-01-20T08:45:12.870Z,48.07
2017-01-20T08:46:13.685Z,48.11
2017-01-20T08:47:12.696Z,48.24
2017-01-20T08:48:12.661Z,48.25
2017-01-20T08:49:13.140Z,48.36
2017-01-20T08:50:11.067Z,48.46
2017-01-20T08:51:12.326Z,48.67
2017-01-20T08:52:12.216Z,48.64
2017-01-20T08:53:13.033Z,48.76
2017-01-20T08:54:12.204Z,48.98
2017-01-20T08:55:12.850Z,49.06
2017-01-20T08:56:14.359Z,49.06
2017-01-20T08:57:12.912Z,49.07
2017-01-20T08:58:14.613Z,49.05
2017-01-20T08:59:12.686Z,49.15
2017-01-20T09:00:12.685Z,49.16
2017-01-20T09:01:13.262Z,49.22
2017-01-20T09:02:14.340Z,49.31
2017-01-20T09:03:12.273Z,49.44
2017-01-20T09:04:12.258Z,49.42
2017-01-20T09:05:12.667Z,49.51
2017-01-20T09:06:12.763Z,49.55
2017-01-20T09:07:13.330Z,49.46
2017-01-20T09:08:14.420Z,49.52
2017-01-20T09:09:12.927Z,49.53
2017-01-20T09:10:12.658Z,49.54
2017-01-20T09:11:11.372Z,49.62
2017-01-20T09:12:14.957Z,49.62
2017-01-20T09:13:12.514Z,49.62
2017-01-20T09:14:13.301Z,49.67
2017-01-20T09:15:12.375Z,49.63
2017-01-20T09:16:12.967Z,49.72
2017-01-20T09:17:13.727Z,49.72
2017-01-20T09:18:17.145Z,49.77
2017-01-20T09:19:12.163Z,49.80
2017-01-20T09:20:12.804Z,49.80
2017-01-20T09:21:14.037Z,49.82
2017-01-20T09:22:11.846Z,49.88
2017-01-20T09:23:13.242Z,49.86
2017-01-20T09:24:12.254Z,49.88
2017-01-20T09:25:12.768Z,49.92
2017-01-20T09:26:11.788Z,49.91
2017-01-20T09:27:12.798Z,49.97
2017-01-20T09:28:12.677Z,50.01
2017-01-20T09:29:12.580Z,50.00
2017-01-20T09:30:12.542Z,50.05
2017-01-20T09:31:12.444Z,50.06
2017-01-20T09:32:12.339Z,50.15
2017-01-20T09:33:12.249Z,50.13
2017-01-20T09:34:12.020Z,50.17
2017-01-20T09:35:12.015Z,50.12
2017-01-20T09:36:12.028Z,50.14
2017-01-20T09:37:14.431Z,50.20
2017-01-20T09:38:12.330Z,50.22
2017-01-20T09:39:12.306Z,50.23
2017-01-20T09:40:13.045Z,50.30
2017-01-20T09:41:12.088Z,50.34
2017-01-20T09:42:12.947Z,50.32
2017-01-20T09:43:12.897Z,50.35
2017-01-20T09:44:12.721Z,50.31
2017-01-20T09:45:13.346Z,50.32
2017-01-20T09:46:12.410Z,50.34
2017-01-20T09:47:12.514Z,50.43
2017-01-20T09:48:11.392Z,50.43
2017-01-20T09:49:12.269Z,49.70
2017-01-20T09:50:11.056Z,49.58
2017-01-20T09:51:13.698Z,49.45
2017-01-20T09:52:13.417Z,49.33
2017-01-20T09:53:13.140Z,49.58
2017-01-20T09:54:14.015Z,50.17
2017-01-20T09:55:12.688Z,50.35
2017-01-20T09:56:13.639Z,50.47
2017-01-20T09:57:13.335Z,50.53
2017-01-20T09:58:13.807Z,50.57
2017-01-20T09:59:13.689Z,50.57
2017-01-20T10:00:12.627Z,50.56
2017-01-20T10:01:12.604Z,50.71
2017-01-20T10:02:13.932Z,50.66
2017-01-20T10:03:11.924Z,50.72
2017-01-20T10:04:12.298Z,50.70
2017-01-20T10:05:13.123Z,50.71
2017-01-20T10:06:10.970Z,50.81
2017-01-20T10:07:11.898Z,50.02
2017-01-20T10:08:12.909Z,49.85
2017-01-20T10:09:14.304Z,49.82
2017-01-20T10:10:12.174Z,49.72
2017-01-20T10:11:12.090Z,49.76
2017-01-20T10:12:12.119Z,49.78
2017-01-20T10:13:12.742Z,50.51
2017-01-20T10:14:11.613Z,50.68
2017-01-20T10:15:14.958Z,50.85
2017-01-20T10:16:12.546Z,50.85
2017-01-20T10:17:13.119Z,50.89
2017-01-20T10:18:12.696Z,50.93
2017-01-20T10:19:13.944Z,51.00
2017-01-20T10:20:12.439Z,51.01
2017-01-20T10:21:12.387Z,51.04
2017-01-20T10:22:13.080Z,51.02
2017-01-20T10:23:12.061Z,51.04
2017-01-20T10:24:12.761Z,51.12
2017-01-20T10:25:13.181Z,50.97
2017-01-20T10:26:12.078Z,50.25
2017-01-20T10:27:10.978Z,50.20
2017-01-20T10:28:11.999Z,50.04
2017-01-20T10:29:12.740Z,50.01
2017-01-20T10:30:13.155Z,50.10
2017-01-20T10:31:12.689Z,50.81
2017-01-20T10:32:13.181Z,50.99
2017-01-20T10:33:12.899Z,51.05
2017-01-20T10:34:12.799Z,51.14
2017-01-20T10:35:11.424Z,51.15
2017-01-20T10:36:13.584Z,51.19
2017-01-20T10:37:12.440Z,51.20
2017-01-20T10:38:12.530Z,51.17
2017-01-20T10:39:12.580Z,51.26
2017-01-20T10:40:13.050Z,51.29
2017-01-20T10:41:12.015Z,51.29
2017-01-20T10:42:11.628Z,51.28
2017-01-20T10:43:15.893Z,51.27
2017-01-20T10:44:13.430Z,51.33
2017-01-20T10:45:12.929Z,51.35
2017-01-20T10:46:12.697Z,51.34
2017-01-20T10:47:13.221Z,51.36
2017-01-20T10:48:12.144Z,51.35
2017-01-20T10:49:12.723Z,51.42
2017-01-20T10:50:12.667Z,51.38
2017-01-20T10:51:11.739Z,51.34
2017-01-20T10:52:11.484Z,50.62
2017-01-20T10:53:12.592Z,50.47
2017-01-20T10:54:13.152Z,51.15
2017-01-20T10:55:12.178Z,51.32
2017-01-20T10:56:15.648Z,51.39
2017-01-20T10:57:12.528Z,51.43
2017-01-20T10:58:13.149Z,51.41
2017-01-20T10:59:12.105Z,51.48
2017-01-20T11:00:12.561Z,51.49
2017-01-20T11:01:13.220Z,51.50
2017-01-20T11:02:12.270Z,51.55
2017-01-20T11:03:12.799Z,51.56
2017-01-20T11:04:15.079Z,51.49
2017-01-20T11:05:12.871Z,51.55
2017-01-20T11:06:15.555Z,51.57
2017-01-20T11:07:13.290Z,51.57
2017-01-20T11:08:12.805Z,51.58
2017-01-20T11:09:12.686Z,51.59
2017-01-20T11:10:13.221Z,51.63
2017-01-20T11:11:12.662Z,51.61
2017-01-20T11:12:12.732Z,51.65
2017-01-20T11:13:16.134Z,51.66
2017-01-20T11:14:12.640Z,51.64
2017-01-20T11:15:13.778Z,51.67
2017-01-20T11:16:13.243Z,51.65
2017-01-20T11:17:13.634Z,51.68
2017-01-20T11:18:12.842Z,51.67
2017-01-20T11:19:12.280Z,51.72
2017-01-20T11:20:12.472Z,51.71
2017-01-20T11:21:12.454Z,51.74
2017-01-20T11:22:13.029Z,51.72
2017-01-20T11:23:12.738Z,51.77
2017-01-20T11:24:13.770Z,51.79
2017-01-20T11:25:13.234Z,51.75
2017-01-20T11:26:12.902Z,51.80
2017-01-20T11:27:12.850Z,51.78
2017-01-20T11:28:12.725Z,51.78
2017-01-20T11:29:14.914Z,51.82
2017-01-20T11:30:12.731Z,51.80
2017-01-20T11:31:12.633Z,51.85
2017-01-20T11:32:12.689Z,51.85
2017-01-20T11:33:13.092Z,51.83
2017-01-20T11:34:13.102Z,51.87
2017-01-20T11:35:12.734Z,51.85
2017-01-20T11:36:11.450Z,51.87
2017-01-20T11:37:12.660Z,51.80
2017-01-20T11:38:12.672Z,51.02
2017-01-20T11:39:14.221Z,50.89
2017-01-20T11:40:12.697Z,50.80
2017-01-20T11:41:12.552Z,50.78
2017-01-20T11:42:13.008Z,50.76
2017-01-20T11:43:12.912Z,50.77
2017-01-20T11:44:15.376Z,50.68
2017-01-20T11:45:14.345Z,50.70
2017-01-20T11:46:12.851Z,50.72
2017-01-20T11:47:14.552Z,50.74
2017-01-20T11:48:13.081Z,51.53
2017-01-20T11:49:13.716Z,51.72
2017-01-20T11:50:12.641Z,51.78
2017-01-20T11:51:12.465Z,51.87
2017-01-20T11:52:12.361Z,51.91
2017-01-20T11:53:13.006Z,51.93
2017-01-20T11:54:12.789Z,51.93
2017-01-20T11:55:13.574Z,51.99
2017-01-20T11:56:12.607Z,51.99
2017-01-20T11:57:13.493Z,51.99
2017-01-20T11:58:13.706Z,52.02
2017-01-20T11:59:12.706Z,52.02
2017-01-20T12:00:15.322Z,52.03
2017-01-20T12:01:12.255Z,52.05
2017-01-20T12:02:12.163Z,52.08
2017-01-20T12:03:12.493Z,52.05
2017-01-20T12:04:12.483Z,52.06
2017-01-20T12:05:14.758Z,52.09
2017-01-20T12:06:12.615Z,52.07
2017-01-20T12:07:13.151Z,52.08
2017-01-20T12:08:11.231Z,51.99
2017-01-20T12:09:14.085Z,51.54
2017-01-20T12:10:12.822Z,51.93
2017-01-20T12:11:15.331Z,52.02
2017-01-20T12:12:12.763Z,52.11
2017-01-20T12:13:12.680Z,52.12
2017-01-20T12:14:12.983Z,52.15
2017-01-20T12:15:12.062Z,52.09
2017-01-20T12:16:12.517Z,52.12
2017-01-20T12:17:14.735Z,52.13
2017-01-20T12:18:13.210Z,52.14
2017-01-20T12:19:12.107Z,52.20
2017-01-20T12:20:12.029Z,52.19
2017-01-20T12:21:11.940Z,52.14
2017-01-20T12:22:11.771Z,52.17
2017-01-20T12:23:10.284Z,52.18
2017-01-20T12:24:12.602Z,52.17
2017-01-20T12:25:13.163Z,52.15
2017-01-20T12:26:12.488Z,52.18
2017-01-20T12:27:14.458Z,52.24
2017-01-20T12:28:14.364Z,52.17
2017-01-20T12:29:13.990Z,52.20
2017-01-20T12:30:11.997Z,52.20
2017-01-20T12:31:12.072Z,52.19
2017-01-20T12:32:12.053Z,52.23
2017-01-20T12:33:11.990Z,52.22
2017-01-20T12:34:11.768Z,52.23
2017-01-20T12:35:12.648Z,52.25
2017-01-20T12:36:12.654Z,52.26
2017-01-20T12:37:12.695Z,52.23
2017-01-20T12:38:13.143Z,52.24
2017-01-20T12:39:21.433Z,52.25
2017-01-20T12:40:12.365Z,52.23
2017-01-20T12:41:12.332Z,52.24
2017-01-20T12:42:12.196Z,52.24
2017-01-20T12:43:16.472Z,52.24
2017-01-20T12:44:12.333Z,52.28
2017-01-20T12:45:12.734Z,52.24
2017-01-20T12:46:12.718Z,52.28
2017-01-20T12:47:11.844Z,52.29
2017-01-20T12:48:12.653Z,52.24
2017-01-20T12:49:16.512Z,52.27
2017-01-20T12:50:12.467Z,52.29
2017-01-20T12:51:13.142Z,52.30
2017-01-20T12:52:12.669Z,52.30